createdAt,value
2018-12-04T00:00:49.743Z,5.63
2018-12-04T00:03:18.115Z,5.30
2018-12-04T00:05:45.428Z,5.63
2018-12-04T00:08:12.732Z,5.80
2018-12-04T00:10:40.005Z,5.60
2018-12-04T00:13:07.304Z,5.43
2018-12-04T00:15:34.621Z,5.03
2018-12-04T00:18:01.955Z,6.00
2018-12-04T00:20:30.619Z,5.57
2018-12-04T00:22:57.896Z,5.50
2018-12-04T00:25:26.169Z,5.30
2018-12-04T00:27:53.465Z,5.33
2018-12-04T00:30:20.733Z,5.37
2018-12-04T00:32:48.032Z,5.80
2018-12-04T00:35:15.311Z,5.40
2018-12-04T00:37:42.587Z,5.50
2018-12-04T00:40:09.859Z,5.17
2018-12-04T00:42:37.136Z,4.93
2018-12-04T00:45:04.715Z,5.70
2018-12-04T00:47:32.032Z,5.60
2018-12-04T00:49:59.347Z,6.03
2018-12-04T00:52:26.661Z,6.00
2018-12-04T00:54:53.964Z,5.70
2018-12-04T00:57:21.264Z,5.23
2018-12-04T00:59:49.511Z,4.60
2018-12-04T01:02:16.841Z,5.17
2018-12-04T01:04:44.149Z,5.57
2018-12-04T01:07:11.556Z,5.30
2018-12-04T01:09:38.864Z,4.70
2018-12-04T01:12:06.145Z,4.93
2018-12-04T01:14:33.454Z,5.30
2018-12-04T01:17:00.752Z,4.83
2018-12-04T01:19:28.039Z,4.67
2018-12-04T01:21:55.344Z,5.10
2018-12-04T01:24:22.643Z,4.70
2018-12-04T01:26:49.953Z,4.50
2018-12-04T01:29:17.223Z,4.90
2018-12-04T01:31:44.536Z,4.77
2018-12-04T01:34:11.819Z,4.23
2018-12-04T01:36:39.145Z,4.97
2018-12-04T01:39:06.428Z,4.70
2018-12-04T01:41:33.728Z,4.17
2018-12-04T01:44:01.029Z,4.70
2018-12-04T01:46:28.295Z,4.47
2018-12-04T01:48:55.702Z,4.40
2018-12-04T01:51:22.959Z,4.43
2018-12-04T01:53:50.272Z,4.10
2018-12-04T01:56:17.535Z,4.67
2018-12-04T01:58:44.977Z,4.50
2018-12-04T02:01:12.283Z,4.37
2018-12-04T02:03:39.563Z,4.40
2018-12-04T02:06:06.835Z,4.57
2018-12-04T02:08:34.115Z,4.60
2018-12-04T02:11:01.412Z,4.20
2018-12-04T02:13:28.688Z,4.30
2018-12-04T02:15:56.000Z,4.80
2018-12-04T02:18:23.324Z,4.40
2018-12-04T02:20:50.996Z,4.33
2018-12-04T02:23:18.296Z,4.47
2018-12-04T02:25:45.586Z,4.50
2018-12-04T02:28:12.871Z,4.50
2018-12-04T02:30:40.151Z,4.80
2018-12-04T02:33:07.448Z,4.70
2018-12-04T02:35:34.757Z,4.63
2018-12-04T02:38:02.057Z,4.70
2018-12-04T02:40:29.339Z,4.30
2018-12-04T02:42:56.652Z,4.30
2018-12-04T02:45:23.952Z,4.50
2018-12-04T02:47:51.357Z,4.47
2018-12-04T02:50:18.629Z,4.10
2018-12-04T02:52:45.951Z,4.53
2018-12-04T02:55:13.218Z,3.90
2018-12-04T02:57:40.632Z,4.13
2018-12-04T03:00:07.924Z,3.90
2018-12-04T03:02:35.205Z,3.90
2018-12-04T03:05:02.608Z,4.20
2018-12-04T03:07:29.926Z,4.17
2018-12-04T03:09:57.217Z,4.90
2018-12-04T03:12:24.495Z,4.70
2018-12-04T03:14:51.770Z,4.50
2018-12-04T03:17:19.059Z,4.63
2018-12-04T03:19:46.355Z,4.97
2018-12-04T03:22:13.619Z,4.70
2018-12-04T03:24:40.901Z,5.20
2018-12-04T03:27:08.179Z,4.83
2018-12-04T03:29:35.468Z,4.40
2018-12-04T03:32:02.791Z,2.40
2018-12-04T03:34:30.130Z,2.93
2018-12-04T03:36:57.472Z,2.10
2018-12-04T03:39:24.734Z,2.00
2018-12-04T03:41:52.057Z,2.30
2018-12-04T03:44:19.356Z,2.03
2018-12-04T03:46:46.614Z,2.30
2018-12-04T03:49:13.894Z,1.23
2018-12-04T03:51:41.159Z,1.30
2018-12-04T03:54:08.468Z,1.87
2018-12-04T03:56:36.721Z,1.60
2018-12-04T03:59:04.019Z,1.40
2018-12-04T04:01:31.336Z,1.53
2018-12-04T04:03:58.644Z,1.30
2018-12-04T04:06:25.936Z,1.37
2018-12-04T04:08:53.270Z,1.67
2018-12-04T04:11:20.535Z,1.40
2018-12-04T04:13:47.836Z,1.60
2018-12-04T04:16:15.123Z,1.93
2018-12-04T04:18:42.399Z,2.03
2018-12-04T04:21:09.688Z,1.50
2018-12-04T04:23:36.960Z,1.57
2018-12-04T04:26:04.265Z,1.90
2018-12-04T04:28:31.560Z,1.73
2018-12-04T04:30:58.832Z,1.93
2018-12-04T04:33:26.124Z,1.90
2018-12-04T04:35:55.295Z,1.80
2018-12-04T04:38:22.602Z,1.37
2018-12-04T04:40:49.932Z,1.57
2018-12-04T04:43:17.234Z,1.70
2018-12-04T04:45:44.557Z,1.70
2018-12-04T04:48:11.827Z,1.93
2018-12-04T04:50:39.129Z,1.83
2018-12-04T04:53:06.396Z,1.80
2018-12-04T04:55:33.667Z,2.10
2018-12-04T04:58:00.947Z,2.10
2018-12-04T05:00:28.271Z,2.10
2018-12-04T05:02:55.540Z,2.23
2018-12-04T05:05:22.812Z,1.70
2018-12-04T05:07:50.111Z,2.10
2018-12-04T05:10:17.376Z,1.70
2018-12-04T05:12:44.644Z,1.70
2018-12-04T05:15:11.948Z,1.97
2018-12-04T05:17:39.249Z,2.40
2018-12-04T05:20:07.509Z,2.07
2018-12-04T05:22:34.800Z,2.17
2018-12-04T05:25:02.086Z,2.17
2018-12-04T05:27:29.364Z,2.10
2018-12-04T05:29:56.635Z,1.93
2018-12-04T05:32:23.915Z,2.07
2018-12-04T05:34:51.223Z,2.90
2018-12-04T05:37:18.479Z,2.37
2018-12-04T05:39:45.797Z,2.57
2018-12-04T05:42:13.067Z,2.70
2018-12-04T05:44:40.370Z,2.40
2018-12-04T05:47:07.675Z,2.80
2018-12-04T05:49:34.951Z,3.70
2018-12-04T05:52:02.251Z,2.93
2018-12-04T05:54:29.599Z,3.00
2018-12-04T05:56:56.915Z,2.93
2018-12-04T05:59:24.217Z,3.13
2018-12-04T06:01:51.524Z,3.53
2018-12-04T06:04:18.803Z,3.60
2018-12-04T06:06:46.101Z,3.10
2018-12-04T06:09:13.377Z,2.67
2018-12-04T06:11:40.708Z,3.40
2018-12-04T06:14:09.920Z,2.70
2018-12-04T06:16:37.191Z,2.30
2018-12-04T06:19:04.492Z,2.73
2018-12-04T06:21:31.802Z,2.80
2018-12-04T06:23:59.079Z,2.97
2018-12-04T06:26:26.373Z,3.50
2018-12-04T06:28:53.643Z,3.23
2018-12-04T06:31:20.985Z,3.60
2018-12-04T06:33:48.231Z,3.10
2018-12-04T06:36:16.174Z,2.80
2018-12-04T06:38:43.565Z,2.83
2018-12-04T06:41:10.831Z,2.90
2018-12-04T06:43:38.107Z,3.00
2018-12-04T06:46:05.484Z,3.00
2018-12-04T06:48:32.784Z,2.70
2018-12-04T06:51:00.055Z,2.90
2018-12-04T06:53:27.330Z,3.40
2018-12-04T06:55:54.656Z,2.97
2018-12-04T06:58:23.364Z,3.17
2018-12-04T07:00:50.644Z,2.63
2018-12-04T07:03:17.911Z,2.43
2018-12-04T07:05:45.187Z,3.10
2018-12-04T07:08:12.480Z,3.03
2018-12-04T07:10:39.747Z,2.30
2018-12-04T07:13:07.035Z,2.40
2018-12-04T07:15:34.335Z,2.53
2018-12-04T07:18:01.672Z,2.93
2018-12-04T07:20:28.947Z,2.50
2018-12-04T07:22:57.152Z,2.20
2018-12-04T07:25:24.621Z,2.93
2018-12-04T07:27:51.932Z,2.80
2018-12-04T07:30:19.245Z,3.20
2018-12-04T07:32:46.519Z,2.70
2018-12-04T07:35:13.827Z,2.40
2018-12-04T07:37:41.130Z,2.50
2018-12-04T07:40:08.440Z,2.30
2018-12-04T07:42:35.871Z,2.40
2018-12-04T07:45:03.547Z,2.47
2018-12-04T07:47:30.811Z,3.07
2018-12-04T07:49:58.107Z,2.87
2018-12-04T07:52:25.408Z,2.83
2018-12-04T07:54:53.013Z,2.80
2018-12-04T07:57:20.316Z,2.67
2018-12-04T07:59:47.587Z,2.13
2018-12-04T08:02:14.865Z,2.80
2018-12-04T08:04:42.188Z,3.07
2018-12-04T08:07:09.507Z,3.20
2018-12-04T08:09:36.775Z,3.07
2018-12-04T08:12:04.097Z,3.23
2018-12-04T08:14:31.413Z,3.17
2018-12-04T08:16:58.680Z,2.80
2018-12-04T08:19:25.988Z,2.90
2018-12-04T08:21:53.288Z,3.27
2018-12-04T08:24:20.638Z,2.90
2018-12-04T08:26:47.936Z,3.20
2018-12-04T08:29:15.207Z,3.60
2018-12-04T08:31:42.524Z,3.70
2018-12-04T08:34:09.859Z,3.10
2018-12-04T08:36:37.163Z,3.50
2018-12-04T08:39:05.527Z,2.37
2018-12-04T08:41:32.844Z,3.53
2018-12-04T08:44:00.130Z,3.23
2018-12-04T08:46:27.463Z,2.70
2018-12-04T08:48:54.761Z,2.87
2018-12-04T08:51:22.045Z,2.60
2018-12-04T08:53:49.323Z,3.00
2018-12-04T08:56:16.592Z,2.43
2018-12-04T08:58:43.898Z,2.90
2018-12-04T09:01:11.212Z,2.80
2018-12-04T09:03:38.512Z,2.43
2018-12-04T09:06:07.761Z,3.07
2018-12-04T09:08:35.060Z,2.57
2018-12-04T09:11:02.372Z,2.30
2018-12-04T09:13:29.660Z,2.60
2018-12-04T09:15:56.963Z,2.60
2018-12-04T09:18:24.245Z,2.80
2018-12-04T09:20:51.551Z,2.07
2018-12-04T09:23:19.002Z,2.47
2018-12-04T09:25:46.356Z,2.37
2018-12-04T09:28:13.768Z,2.37
2018-12-04T09:30:41.140Z,2.80
2018-12-04T09:33:08.452Z,2.20
2018-12-04T09:35:35.727Z,3.07
2018-12-04T09:38:03.060Z,2.00
2018-12-04T09:40:30.359Z,2.83
2018-12-04T09:42:57.627Z,2.10
2018-12-04T09:45:24.907Z,2.83
2018-12-04T09:47:52.236Z,2.27
2018-12-04T09:50:19.519Z,2.53
2018-12-04T09:52:46.796Z,3.50
2018-12-04T09:55:14.153Z,2.57
2018-12-04T09:57:41.460Z,2.93
2018-12-04T10:00:08.762Z,2.67
2018-12-04T10:02:36.068Z,2.50
2018-12-04T10:05:03.748Z,2.23
2018-12-04T10:07:31.022Z,3.20
2018-12-04T10:10:00.744Z,2.63
2018-12-04T10:12:27.628Z,2.63
2018-12-04T10:14:54.901Z,2.37
2018-12-04T10:17:22.208Z,2.40
2018-12-04T10:19:49.490Z,2.57
2018-12-04T10:22:16.842Z,2.70
2018-12-04T10:24:44.114Z,2.40
2018-12-04T10:27:11.393Z,2.57
2018-12-04T10:29:38.667Z,2.47
2018-12-04T10:32:05.939Z,3.07
2018-12-04T10:34:33.256Z,2.80
2018-12-04T10:37:00.564Z,2.10
2018-12-04T10:39:27.834Z,2.00
2018-12-04T10:41:55.144Z,2.90
2018-12-04T10:44:22.444Z,2.10
2018-12-04T10:46:49.774Z,2.93
2018-12-04T10:49:17.040Z,2.77
2018-12-04T10:51:44.347Z,2.20
2018-12-04T10:54:11.665Z,2.13
2018-12-04T10:56:38.975Z,2.17
2018-12-04T10:59:06.238Z,2.00
2018-12-04T11:01:39.186Z,1.87
2018-12-04T11:04:06.459Z,2.60
2018-12-04T11:06:33.764Z,2.30
2018-12-04T11:09:01.077Z,2.10
2018-12-04T11:11:28.347Z,2.43
2018-12-04T11:13:55.664Z,3.13
2018-12-04T11:16:22.996Z,2.37
2018-12-04T11:18:50.274Z,2.73
2018-12-04T11:21:17.582Z,2.27
2018-12-04T11:23:44.867Z,2.20
2018-12-04T11:26:12.174Z,2.10
2018-12-04T11:28:39.509Z,2.30
2018-12-04T11:31:06.801Z,2.20
2018-12-04T11:33:34.114Z,1.80
2018-12-04T11:36:01.377Z,2.43
2018-12-04T11:38:28.676Z,2.60
2018-12-04T11:40:55.972Z,1.80
2018-12-04T11:43:23.268Z,2.50
2018-12-04T11:45:50.577Z,2.53
2018-12-04T11:48:17.901Z,2.00
2018-12-04T11:50:45.208Z,1.83
2018-12-04T11:53:12.505Z,2.07
2018-12-04T11:55:40.935Z,1.73
2018-12-04T11:58:08.328Z,1.70
2018-12-04T12:00:35.599Z,2.00
2018-12-04T12:03:02.904Z,2.17
2018-12-04T12:05:30.269Z,2.53
2018-12-04T12:07:57.532Z,1.90
2018-12-04T12:10:24.845Z,2.77
2018-12-04T12:12:52.112Z,1.80
2018-12-04T12:15:19.741Z,2.17
2018-12-04T12:17:47.147Z,2.17
2018-12-04T12:20:14.464Z,2.33
2018-12-04T12:22:41.756Z,1.87
2018-12-04T12:25:09.056Z,1.93
2018-12-04T12:27:36.335Z,2.00
2018-12-04T12:30:04.311Z,2.23
2018-12-04T12:32:31.588Z,2.33
2018-12-04T12:34:58.863Z,2.00
2018-12-04T12:37:26.143Z,2.47
2018-12-04T12:39:53.412Z,1.83
2018-12-04T12:42:20.684Z,1.67
2018-12-04T12:44:47.993Z,1.90
2018-12-04T12:47:15.311Z,2.10
2018-12-04T12:49:42.610Z,2.27
2018-12-04T12:52:09.908Z,1.60
2018-12-04T12:54:37.256Z,1.60
2018-12-04T12:57:04.583Z,2.03
2018-12-04T12:59:31.841Z,1.80
2018-12-04T13:01:59.136Z,1.47
2018-12-04T13:04:26.450Z,2.00
2018-12-04T13:06:53.715Z,3.27
2018-12-04T13:09:21.065Z,2.60
2018-12-04T13:11:48.331Z,2.37
2018-12-04T13:14:15.619Z,2.43
2018-12-04T13:16:43.849Z,1.80
2018-12-04T13:19:11.140Z,2.10
2018-12-04T13:21:38.447Z,2.27
2018-12-04T13:24:05.707Z,2.07
2018-12-04T13:26:33.016Z,2.40
2018-12-04T13:29:00.322Z,2.20
2018-12-04T13:31:27.640Z,1.80
2018-12-04T13:33:54.944Z,2.20
2018-12-04T13:38:48.972Z,1.90
2018-12-04T13:41:17.153Z,3.10
2018-12-04T13:43:44.460Z,2.97
2018-12-04T13:46:11.776Z,2.63
2018-12-04T13:48:39.072Z,2.27
2018-12-04T13:51:06.334Z,2.50
2018-12-04T13:53:33.613Z,2.33
2018-12-04T13:56:00.887Z,2.27
2018-12-04T13:58:28.209Z,2.10
2018-12-04T14:00:55.501Z,2.43
2018-12-04T14:03:22.832Z,2.90
2018-12-04T14:05:50.118Z,2.20
2018-12-04T14:08:17.414Z,2.20
2018-12-04T14:10:44.780Z,2.27
2018-12-04T14:13:12.068Z,1.90
2018-12-04T14:15:39.389Z,2.70
2018-12-04T14:18:06.749Z,2.27
2018-12-04T14:20:34.057Z,2.10
2018-12-04T14:23:01.329Z,3.07
2018-12-04T14:25:28.645Z,1.80
2018-12-04T14:27:55.932Z,2.13
2018-12-04T14:30:23.219Z,1.73
2018-12-04T14:32:50.470Z,1.90
2018-12-04T14:35:17.778Z,2.20
2018-12-04T14:37:45.181Z,3.43
2018-12-04T14:40:12.547Z,2.17
2018-12-04T14:42:39.889Z,2.33
2018-12-04T14:45:07.276Z,2.13
2018-12-04T14:47:34.620Z,2.87
2018-12-04T14:50:01.929Z,2.33
2018-12-04T14:52:29.203Z,2.83
2018-12-04T14:54:57.392Z,2.30
2018-12-04T14:57:24.701Z,2.50
2018-12-04T14:59:51.990Z,2.60
2018-12-04T15:02:19.376Z,2.40
2018-12-04T15:04:46.847Z,2.50
2018-12-04T15:07:14.799Z,2.57
2018-12-04T15:09:42.120Z,2.50
2018-12-04T15:12:09.492Z,3.00
2018-12-04T15:14:36.886Z,2.80
2018-12-04T15:17:04.224Z,2.70
2018-12-04T15:19:31.500Z,2.37
2018-12-04T15:21:58.840Z,2.50
2018-12-04T15:24:26.197Z,2.33
2018-12-04T15:26:53.596Z,2.30
2018-12-04T15:29:20.995Z,2.30
2018-12-04T15:31:48.341Z,2.43
2018-12-04T15:34:15.694Z,2.33
2018-12-04T15:36:43.086Z,3.43
2018-12-04T15:39:10.498Z,3.10
2018-12-04T15:41:38.803Z,2.70
2018-12-04T15:44:06.149Z,2.70
2018-12-04T15:46:34.429Z,2.90
2018-12-04T15:49:01.710Z,2.50
2018-12-04T15:51:29.071Z,2.60
2018-12-04T15:53:56.407Z,2.50
2018-12-04T15:56:23.727Z,2.20
2018-12-04T15:58:51.015Z,2.37
2018-12-04T16:01:18.324Z,2.20
2018-12-04T16:03:45.669Z,2.10
2018-12-04T16:06:12.931Z,2.40
2018-12-04T16:08:40.209Z,2.23
2018-12-04T16:11:07.487Z,2.70
2018-12-04T16:13:34.803Z,2.93
2018-12-04T16:16:02.071Z,2.53
2018-12-04T16:18:29.392Z,2.03
2018-12-04T16:20:56.715Z,2.90
2018-12-04T16:23:23.986Z,2.20
2018-12-04T16:25:52.125Z,1.90
2018-12-04T16:28:19.424Z,2.40
2018-12-04T16:30:46.692Z,2.40
2018-12-04T16:33:14.020Z,2.57
2018-12-04T16:35:41.316Z,2.47
2018-12-04T16:38:08.624Z,3.13
2018-12-04T16:40:35.932Z,2.10
2018-12-04T16:43:03.197Z,2.10
2018-12-04T16:45:30.498Z,2.70
2018-12-04T16:47:57.804Z,2.27
2018-12-04T16:50:25.320Z,2.50
2018-12-04T16:52:52.595Z,2.47
2018-12-04T16:55:19.891Z,2.60
2018-12-04T16:57:47.163Z,2.73
2018-12-04T17:00:15.385Z,3.27
2018-12-04T17:02:42.689Z,2.93
2018-12-04T17:05:09.976Z,2.43
2018-12-04T17:07:37.255Z,2.73
2018-12-04T17:10:04.965Z,2.20
2018-12-04T17:12:33.151Z,2.90
2018-12-04T17:15:00.594Z,2.93
2018-12-04T17:17:27.892Z,2.43
2018-12-04T17:19:56.138Z,2.70
2018-12-04T17:22:23.452Z,2.40
2018-12-04T17:24:50.722Z,3.10
2018-12-04T17:27:18.020Z,2.43
2018-12-04T17:29:45.324Z,2.43
2018-12-04T17:32:12.634Z,2.23
2018-12-04T17:34:39.936Z,2.43
2018-12-04T17:37:07.241Z,2.50
2018-12-04T17:39:34.539Z,2.33
2018-12-04T17:42:01.841Z,3.80
2018-12-04T17:44:29.111Z,2.80
2018-12-04T17:46:56.415Z,1.77
2018-12-04T17:49:23.727Z,2.10
2018-12-04T17:51:51.000Z,2.30
2018-12-04T17:54:18.276Z,2.40
2018-12-04T17:56:45.563Z,2.80
2018-12-04T17:59:12.863Z,3.27
2018-12-04T18:01:40.176Z,2.30
2018-12-04T18:04:07.487Z,2.63
2018-12-04T18:06:34.772Z,2.60
2018-12-04T18:09:02.110Z,2.73
2018-12-04T18:11:29.384Z,2.37
2018-12-04T18:13:56.691Z,2.73
2018-12-04T18:16:23.955Z,2.57
2018-12-04T18:18:51.244Z,2.70
2018-12-04T18:21:18.580Z,3.00
2018-12-04T18:23:45.883Z,2.50
2018-12-04T18:26:13.177Z,2.40
2018-12-04T18:28:40.455Z,2.50
2018-12-04T18:31:07.768Z,2.27
2018-12-04T18:33:35.060Z,2.50
2018-12-04T18:36:02.342Z,2.80
2018-12-04T18:38:29.657Z,2.70
2018-12-04T18:40:56.948Z,2.60
2018-12-04T18:43:24.215Z,2.23
2018-12-04T18:45:51.476Z,2.60
2018-12-04T18:48:18.761Z,3.77
2018-12-04T18:50:46.079Z,2.20
2018-12-04T18:53:13.367Z,3.27
2018-12-04T18:55:40.675Z,2.47
2018-12-04T18:58:08.055Z,2.30
2018-12-04T19:00:35.564Z,2.97
2018-12-04T19:03:02.814Z,3.17
2018-12-04T19:05:30.144Z,3.00
2018-12-04T19:07:57.435Z,2.37
2018-12-04T19:10:24.753Z,2.63
2018-12-04T19:12:52.067Z,4.03
2018-12-04T19:15:19.374Z,2.53
2018-12-04T19:17:46.672Z,2.40
2018-12-04T19:20:14.929Z,2.40
2018-12-04T19:22:42.218Z,2.47
2018-12-04T19:25:10.819Z,2.67
2018-12-04T19:27:38.093Z,2.97
2018-12-04T19:30:08.147Z,2.70
2018-12-04T19:32:35.416Z,2.30
2018-12-04T19:35:02.740Z,2.60
2018-12-04T19:37:30.067Z,2.87
2018-12-04T19:39:57.385Z,2.27
2018-12-04T19:42:24.709Z,3.30
2018-12-04T19:44:52.011Z,2.80
2018-12-04T19:47:19.314Z,2.90
2018-12-04T19:49:46.620Z,3.20
2018-12-04T19:52:13.912Z,2.67
2018-12-04T19:54:41.286Z,3.73
2018-12-04T19:57:08.624Z,2.57
2018-12-04T19:59:36.034Z,2.90
2018-12-04T20:02:03.340Z,2.70
2018-12-04T20:04:30.766Z,3.00
2018-12-04T20:06:58.150Z,2.33
2018-12-04T20:09:25.519Z,2.40
2018-12-04T20:11:52.853Z,3.10
2018-12-04T20:14:21.139Z,2.10
2018-12-04T20:16:48.456Z,2.40
2018-12-04T20:19:15.796Z,2.57
2018-12-04T20:21:43.108Z,2.67
2018-12-04T20:24:10.890Z,2.40
2018-12-04T20:26:38.244Z,2.43
2018-12-04T20:29:05.580Z,2.33
2018-12-04T20:31:32.852Z,2.90
2018-12-04T20:34:00.177Z,2.50
2018-12-04T20:36:27.463Z,2.30
2018-12-04T20:38:55.050Z,2.60
2018-12-04T20:41:22.425Z,2.83
2018-12-04T20:43:49.762Z,2.80
2018-12-04T20:46:17.035Z,3.57
2018-12-04T20:48:44.344Z,3.00
2018-12-04T20:51:11.668Z,2.77
2018-12-04T20:53:39.036Z,3.30
2018-12-04T20:56:06.380Z,3.10
2018-12-04T20:58:33.688Z,3.20
2018-12-04T21:01:01.195Z,2.60
2018-12-04T21:03:29.496Z,3.03
2018-12-04T21:05:56.878Z,3.10
2018-12-04T21:08:24.228Z,3.07
2018-12-04T21:10:51.573Z,2.77
2018-12-04T21:13:18.920Z,2.60
2018-12-04T21:15:46.293Z,2.43
2018-12-04T21:18:16.007Z,2.40
2018-12-04T21:20:43.324Z,2.70
2018-12-04T21:23:10.640Z,2.20
2018-12-04T21:25:37.915Z,2.33
2018-12-04T21:28:10.855Z,2.90
2018-12-04T21:30:43.869Z,2.97
2018-12-04T21:33:17.003Z,2.73
2018-12-04T21:35:50.124Z,2.50
2018-12-04T21:38:23.336Z,3.23
2018-12-04T21:40:52.627Z,2.67
2018-12-04T21:43:25.877Z,2.53
2018-12-04T21:45:58.940Z,2.40
2018-12-04T21:48:28.236Z,2.67
2018-12-04T21:50:55.532Z,2.83
2018-12-04T21:53:22.823Z,2.70
2018-12-04T21:55:50.204Z,2.73
2018-12-04T21:58:17.486Z,2.90
2018-12-04T22:00:45.748Z,2.40
2018-12-04T22:03:13.065Z,2.30
2018-12-04T22:05:40.746Z,3.10
2018-12-04T22:08:08.071Z,2.90
2018-12-04T22:10:36.559Z,3.40
2018-12-04T22:13:03.880Z,2.53
2018-12-04T22:15:31.200Z,2.53
2018-12-04T22:17:58.516Z,1.77
2018-12-04T22:20:25.839Z,2.73
2018-12-04T22:22:53.135Z,2.30
2018-12-04T22:25:20.419Z,2.23
2018-12-04T22:27:47.713Z,2.13
2018-12-04T22:30:15.023Z,2.60
2018-12-04T22:32:42.311Z,2.57
2018-12-04T22:35:09.836Z,2.00
2018-12-04T22:37:37.122Z,2.50
2018-12-04T22:40:05.051Z,2.27
2018-12-04T22:42:32.347Z,2.83
2018-12-04T22:45:01.564Z,2.40
2018-12-04T22:47:28.850Z,2.47
2018-12-04T22:49:56.196Z,2.00
2018-12-04T22:52:23.520Z,2.47
2018-12-04T22:54:50.833Z,2.63
2018-12-04T22:57:18.175Z,2.27
2018-12-04T22:59:45.456Z,2.03
2018-12-04T23:02:12.827Z,2.90
2018-12-04T23:04:40.122Z,2.17
2018-12-04T23:07:07.444Z,2.03
2018-12-04T23:09:34.773Z,2.77
2018-12-04T23:12:02.204Z,3.27
2018-12-04T23:14:29.524Z,2.33
2018-12-04T23:16:56.844Z,2.40
2018-12-04T23:19:24.164Z,2.00
2018-12-04T23:21:51.484Z,2.30
2018-12-04T23:24:18.767Z,2.00
2018-12-04T23:26:46.093Z,2.37
2018-12-04T23:29:13.404Z,2.40
2018-12-04T23:31:40.748Z,2.10
2018-12-04T23:34:08.061Z,2.40
2018-12-04T23:36:35.344Z,2.47
2018-12-04T23:39:03.279Z,2.70
2018-12-04T23:41:30.575Z,2.60
2018-12-04T23:43:57.893Z,2.57
2018-12-04T23:46:25.179Z,2.37
2018-12-04T23:48:52.471Z,2.23
2018-12-04T23:51:19.789Z,2.80
2018-12-04T23:53:47.121Z,2.57
2018-12-04T23:56:14.435Z,2.40
2018-12-04T23:58:41.795Z,2.97
